Shipley, Arizona
Current Conditions -  °F | °C
As of 11:51 PM on Thursday 30 Oct 2014 (Local Time) from KIGM Reporting Station
Clear Clear  
Wind Chill: 60°   Ceiling: Unl
Heat Index: 60°   Visibility: NA
Dew Point: 33°   Wind: 6mph
Humidity: 36%   Direction: 200°SSW
Pressure: 30.05"   Gusts: NA
Location:  35.5603°N, 113.544°W
Report Text: KIGM 310651Z AUTO 20005KT CLR 16/01 A3005 RMK AO2 SLP114 T01560006 402890072
Loading
Personal Weather Stations






























Interactive Weather Map
Tropical Storm Tracking
New forecast layout! Learn more

10-Day Weather Forecast

Advertisements
Track Severe Weather on mobile